KBAD/BAD METAR and TAF weather

Enter ICAO airport designator
Station Type Date Time Source
KBAD METAR 2020/09/26 12:26 UTC NOAA

KBAD 261226Z AUTO 17007KT 3/8SM R15/3000V4500FT FG VV002 17/17 A3000 RMK AO2 CIG 001 RWY33 SLP161


Station Type Date Time Source
KBAD Decoded METAR 2020/09/26 12:26 UTC NOAA

Barksdale Air Force Base, LA, United States (KBAD) 32-30N 093-40W
Sep 26, 2020 - 08:26 AM EDT / 2020.09.26 1226 UTC
Wind: from the S (170 degrees) at 8 MPH (7 KT) (direction variable):0
Visibility: 3/8 mile(s):0
Sky conditions: obscured
Weather: fog
Temperature: 62 F (17 C)
Dew Point: 62 F (17 C)
Relative Humidity: 100%
Pressure (altimeter): 30 in. Hg (1015 hPa)
ob: KBAD 261226Z AUTO 17007KT 3/8SM R15/3000V4500FT FG VV002 17/17 A3000 RMK AO2 CIG 001 RWY33 SLP161
cycle: 12

Station Type Date Time Source
KBAD TAF 2020/09/26 10:06 UTC NOAA

TAF KBAD 261000Z 2610/2716 15003KT 0800 FG VV002 QNH2995INS
BECMG 2611/2612 15005KT 6000 BR SKC QNH2998INS
BECMG 2614/2615 15006KT 9999 NSW SKC QNH2986INS
BECMG 2616/2617 15009KT 9999 BKN030 QNH2974INS
BECMG 2700/2701 18006KT 9999 SKC QNH2974INS TX27/2621Z TN15/2612Z

Example: see airport list